HTAT2: Little Wichita River abv Henrietta 3W

                                SHEF ID:       HTAT2     Little Wichita Rv abv Henrietta,
STATION TYPE:

PRECIP STAGE RIV-FLOW BAT-LOAD
in ft cfs volt
Ccp-Rev Ccp-Rev Ccp-Rev Ccp-Rev
(America/Chicago)
04/17 00:00 ---- 15.25 561 12.57
04/17 01:00 ---- 15.00 535 12.57
04/17 02:00 ---- 14.74 509 12.49
04/17 03:00 ---- 14.49 484 12.49
04/17 04:00 ---- 14.21 456 12.49
04/17 05:00 ---- 13.94 430 12.49
04/17 06:00 ---- 13.67 405 12.41
04/17 07:00 ---- 13.40 382 12.41
04/17 08:00 ---- 13.14 360 12.41
04/17 09:00 ---- 12.89 340 12.49
04/17 10:00 ---- 12.63 319 12.65
04/17 11:00 ---- 12.40 300 12.81
04/17 12:00 ---- 12.18 283 12.73
04/17 13:00 ---- 11.96 266 12.81
04/17 14:00 ---- 11.78 252 12.65
04/17 15:00 ---- 11.60 239 12.65
04/17 16:00 ---- 11.41 225 12.81
04/17 17:00 ---- 11.25 214 12.89
04/17 18:00 ---- 11.09 202 12.73
04/17 19:00 ---- 10.94 192 12.57
04/17 20:00 ---- 10.81 182 12.57
04/17 21:00 ---- 10.68 173 12.49
04/17 22:00 ---- 10.56 164 12.41
04/17 23:00 ---- 10.44 155 12.41
Data processed at Sat 18Apr2026 04:37 GMT

NOTICE: If you are parsing this page

Please convert to using our Data API. Starting early 2026 we will be migrating to: https://water.usace.army.mil with modern pages rendered in JavaScript. When this migration completes you will no longer be able to scrape this page! CWMSDataAPI (CDA)

Timeseries IDs (TSIDs)

TSIDs used from left to right in the data table
HENR.Precip-Inc.Total.1Hour.1Hour.Ccp-Rev
HENR.Stage.Inst.1Hour.0.Ccp-Rev
HENR.Flow.Inst.1Hour.0.Ccp-Rev
HENR.Volt-Battery Load.Inst.1Hour.0.Ccp-Rev

                            

All information presented herein is the property of the government of the United States of America and may be revised or deleted at any time without prior notice. Dissemination of this information without the expressed written consent of the Public Affairs Office, Tulsa District U.S. Army Corps of Engineers is strictly prohibited. These data are gathered electronically and, as presented, have NOT undergone any form of quality control. These data are NOT guaranteed to be valid or correct.